Terminal Aerodrome Forecast
Issued by NWS Omaha/Valley, NE

Home | Current Version | Previous Version | Text Only | Print | Product List | Glossary On
Versions: 1 2 3 4 5 6 7 8 9 10 11 12 13 14 15 16 17 18 19 20 21 22 23 24 25 26 27 28 29 30 31 32 33 34 35 36 37 38 39
000
FTUS43 KOAX 252338
TAFOMA
TAF
KOMA 252338Z 2600/2624 VRB05KT P6SM BKN250
     FM260800 36010KT P6SM BKN035
     FM261000 35013KT 4SM BR OVC015
     FM261200 35014G20KT 2SM BR OVC010 PROB30 2620/2624 2SM -FZDZRA
      OVC007=

USA.gov is the U.S. government's official web portal to all federal, state and local government web resources and services.